Time;durP1;ratioP1;P1;durP2;ratioP2;P2;SDS_P1;SDS_P2;PMS_P1;PMS_P2;Temp;Humidity;BMP_temperature;BMP_pressure;BME280_temperature;BME280_humidity;BME280_pressure;Samples;Min_cycle;Max_cycle;Signal;HPM_P1;HPM_P2
2022/08/25 00:02:06;;;;;;;20.15;7.38;;;;;;;21.64;94.17;100115.34;5095762;28;20043;-77
2022/08/25 00:04:35;;;;;;;20.98;7.85;;;;;;;21.61;93.74;100120.22;5097524;28;20504;-77
2022/08/25 00:07:03;;;;;;;18.35;8.43;;;;;;;21.67;91.99;100112.28;5095742;28;20043;-77
2022/08/25 00:09:32;;;;;;;22.90;8.02;;;;;;;21.73;90.37;100115.44;5095130;28;20044;-77
2022/08/25 00:12:00;;;;;;;18.60;7.88;;;;;;;21.75;89.42;100111.53;5074893;28;20060;-77
2022/08/25 00:14:29;;;;;;;17.65;7.50;;;;;;;21.79;89.07;100112.97;5074637;28;20514;-77
2022/08/25 00:16:57;;;;;;;14.73;7.72;;;;;;;21.93;88.80;100110.69;5074869;28;20049;-77
2022/08/25 00:19:28;;;;;;;15.07;7.90;;;;;;;21.84;88.33;100113.34;5074901;28;20056;-76
2022/08/25 00:21:57;;;;;;;16.55;8.00;;;;;;;21.77;89.12;100108.63;5075986;28;20050;-77
2022/08/25 00:24:25;;;;;;;19.15;8.02;;;;;;;21.77;89.12;100092.13;5075168;28;20082;-77
2022/08/25 00:26:56;;;;;;;19.67;7.70;;;;;;;21.82;88.65;100111.75;5074484;28;20449;-77
2022/08/25 00:29:24;;;;;;;19.52;8.25;;;;;;;21.76;88.86;100107.75;5075929;28;20094;-77
2022/08/25 00:31:53;;;;;;;20.65;7.97;;;;;;;21.73;88.90;100112.69;5074652;28;20044;-78
2022/08/25 00:34:23;;;;;;;17.45;8.15;;;;;;;21.67;89.25;100105.94;5089192;28;20123;-76
2022/08/25 00:36:51;;;;;;;16.95;8.27;;;;;;;21.66;89.33;100096.81;5094869;28;20453;-77
2022/08/25 00:39:21;;;;;;;21.17;8.35;;;;;;;21.64;89.59;100096.09;5094859;28;20498;-77
2022/08/25 00:41:50;;;;;;;21.33;8.25;;;;;;;21.63;90.00;100099.84;5093184;28;20048;-76
2022/08/25 00:44:18;;;;;;;17.00;8.18;;;;;;;21.64;89.81;100101.59;5093306;28;20040;-77
2022/08/25 00:46:48;;;;;;;20.67;8.48;;;;;;;21.60;90.05;100104.75;5093687;28;20406;-77
2022/08/25 00:49:19;;;;;;;17.98;8.07;;;;;;;21.62;90.17;100098.09;5094068;28;20051;-76
2022/08/25 00:51:49;;;;;;;22.58;8.40;;;;;;;21.63;89.70;100099.00;5089494;28;20040;-78
2022/08/25 00:54:21;;;;;;;17.50;8.40;;;;;;;21.63;89.96;100102.59;5094151;28;20047;-77
2022/08/25 00:56:50;;;;;;;19.20;7.82;;;;;;;21.58;89.63;100104.94;5095284;28;20465;-77
2022/08/25 00:59:19;;;;;;;18.58;8.07;;;;;;;21.63;89.20;100105.34;5094315;28;20063;-76
2022/08/25 01:01:47;;;;;;;15.68;8.05;;;;;;;21.65;88.93;100102.47;5094584;28;20047;-77
2022/08/25 01:04:14;;;;;;;16.48;7.93;;;;;;;21.68;88.80;100097.53;5094600;28;20499;-77
2022/08/25 01:06:44;;;;;;;16.67;7.95;;;;;;;21.62;88.95;100094.47;5094472;28;20097;-77
2022/08/25 01:09:13;;;;;;;18.27;8.25;;;;;;;21.62;89.04;100087.13;5094083;28;20055;-77
2022/08/25 01:11:43;;;;;;;19.58;8.10;;;;;;;21.57;89.52;100094.94;5094496;28;20055;-77
2022/08/25 01:14:12;;;;;;;15.88;8.05;;;;;;;21.54;89.70;100100.75;5094714;28;20628;-77
2022/08/25 01:16:42;;;;;;;13.68;7.60;;;;;;;21.53;89.52;100102.63;5094453;28;20402;-77
2022/08/25 01:19:11;;;;;;;16.52;8.27;;;;;;;21.52;89.79;100105.53;5094134;28;20040;-77
2022/08/25 01:21:45;;;;;;;13.98;7.95;;;;;;;21.41;90.95;100112.94;5094382;28;20055;-78
2022/08/25 01:24:17;;;;;;;16.10;7.85;;;;;;;21.31;93.21;100100.28;5094502;28;20055;-77
2022/08/25 01:26:44;;;;;;;15.73;7.75;;;;;;;21.16;94.57;100110.88;5095030;28;20043;-77
2022/08/25 01:29:21;;;;;;;17.38;7.90;;;;;;;21.11;95.28;100103.94;5094135;28;20040;-77
2022/08/25 01:31:49;;;;;;;16.33;8.05;;;;;;;20.94;96.26;100107.44;5094252;28;20044;-77
2022/08/25 01:34:17;;;;;;;23.75;8.07;;;;;;;20.97;96.01;100099.78;5094062;28;20044;-77
2022/08/25 01:36:46;;;;;;;20.65;7.60;;;;;;;20.92;95.80;100106.72;5093971;28;20487;-77
2022/08/25 01:39:14;;;;;;;16.77;7.72;;;;;;;20.81;95.39;100114.13;5093072;28;20044;-77
2022/08/25 01:41:58;;;;;;;15.88;7.60;;;;;;;20.75;95.68;100111.03;5093904;28;20051;-77
2022/08/25 01:44:26;;;;;;;17.98;8.27;;;;;;;20.84;95.03;100116.56;5095389;28;20436;-76
2022/08/25 01:46:54;;;;;;;17.48;7.45;;;;;;;20.79;95.32;100115.25;5094020;28;20043;-77
2022/08/25 01:49:21;;;;;;;16.15;8.00;;;;;;;20.64;96.83;100114.84;5093665;28;20040;-77
2022/08/25 01:51:53;;;;;;;16.55;7.90;;;;;;;20.53;97.44;100107.63;5088037;28;20063;-77
2022/08/25 01:54:20;;;;;;;22.90;8.57;;;;;;;20.48;97.69;100115.41;5092972;28;20398;-77
2022/08/25 01:56:48;;;;;;;19.83;8.18;;;;;;;20.48;97.86;100109.94;5093698;28;20085;-77
2022/08/25 01:59:16;;;;;;;16.42;7.68;;;;;;;20.46;98.04;100110.06;5093289;28;20048;-77
2022/08/25 02:01:44;;;;;;;19.75;8.60;;;;;;;20.37;98.37;100116.41;5093518;28;20149;-77
2022/08/25 02:04:11;;;;;;;20.73;8.05;;;;;;;20.26;98.52;100111.94;5093686;28;20044;-77
2022/08/25 02:06:40;;;;;;;20.23;8.30;;;;;;;20.20;98.26;100109.75;5093603;28;20118;-77
2022/08/25 02:09:12;;;;;;;15.98;7.88;;;;;;;20.12;98.06;100108.59;5093094;28;20570;-76
2022/08/25 02:11:42;;;;;;;20.40;8.23;;;;;;;20.09;97.74;100106.16;5093665;28;20395;-76
2022/08/25 02:14:11;;;;;;;19.02;8.40;;;;;;;19.97;98.13;100108.13;5093415;28;20513;-76
2022/08/25 02:16:40;;;;;;;19.73;8.15;;;;;;;19.88;98.40;100108.97;5093337;28;20048;-77
2022/08/25 02:19:10;;;;;;;18.13;8.27;;;;;;;19.83;98.73;100109.38;5093464;28;20104;-77
2022/08/25 02:21:38;;;;;;;15.50;8.00;;;;;;;19.90;98.05;100112.47;5093450;28;20550;-76
2022/08/25 02:24:06;;;;;;;18.85;8.40;;;;;;;20.01;97.29;100111.47;5093337;28;20048;-77
2022/08/25 02:26:36;;;;;;;18.23;8.13;;;;;;;20.05;97.22;100117.53;5093399;28;20059;-77
2022/08/25 02:29:04;;;;;;;19.20;7.85;;;;;;;20.08;97.71;100117.25;5093106;28;20593;-77
2022/08/25 02:31:32;;;;;;;15.93;8.02;;;;;;;20.09;98.08;100124.44;5093217;28;20405;-76
2022/08/25 02:34:00;;;;;;;16.05;7.82;;;;;;;20.08;98.34;100112.63;5093165;28;20509;-76
2022/08/25 02:36:28;;;;;;;15.70;8.32;;;;;;;20.13;98.33;100125.91;5092768;28;20043;-76
2022/08/25 02:38:56;;;;;;;16.60;8.43;;;;;;;20.15;98.74;100131.25;5092960;28;20048;-77
2022/08/25 02:41:25;;;;;;;18.67;8.20;;;;;;;20.12;98.66;100135.13;5093002;28;20052;-76
2022/08/25 02:43:55;;;;;;;17.85;9.00;;;;;;;20.09;98.61;100133.56;5093176;28;20433;-77
2022/08/25 02:46:23;;;;;;;17.60;8.43;;;;;;;20.19;97.76;100128.06;5093262;28;20101;-77
2022/08/25 02:48:52;;;;;;;17.73;8.57;;;;;;;20.21;97.97;100126.09;5092799;28;20122;-77
2022/08/25 02:51:20;;;;;;;17.13;8.38;;;;;;;20.12;98.16;100126.91;5092601;28;20094;-77
2022/08/25 02:53:48;;;;;;;17.52;8.70;;;;;;;20.11;97.80;100126.06;5092923;28;20044;-77
2022/08/25 02:56:18;;;;;;;15.85;8.40;;;;;;;20.18;97.49;100125.50;5093086;28;20504;-77
2022/08/25 02:58:46;;;;;;;17.15;8.43;;;;;;;20.16;97.39;100130.25;5092800;28;20106;-77
2022/08/25 03:01:16;;;;;;;19.05;8.20;;;;;;;20.19;97.29;100117.09;5092773;28;20055;-76
2022/08/25 03:03:46;;;;;;;18.10;8.10;;;;;;;20.19;97.09;100121.72;5093104;28;20048;-77
2022/08/25 03:06:16;;;;;;;16.17;8.63;;;;;;;20.16;97.31;100117.38;5092465;28;20051;-77
2022/08/25 03:08:44;;;;;;;18.95;9.20;;;;;;;20.08;98.00;100115.38;5093554;28;20044;-77
2022/08/25 03:11:12;;;;;;;18.90;8.32;;;;;;;19.90;100.00;100120.69;5092912;28;20048;-77
2022/08/25 03:13:39;;;;;;;23.90;8.05;;;;;;;19.72;100.00;100125.03;5096167;28;20044;-77
2022/08/25 03:16:09;;;;;;;18.65;8.13;;;;;;;19.68;100.00;100128.06;5096746;28;20501;-77
2022/08/25 03:18:38;;;;;;;11.95;7.38;;;;;;;19.72;100.00;100130.53;5096482;28;20044;-77
2022/08/25 03:21:06;;;;;;;16.80;7.70;;;;;;;19.57;100.00;100125.44;5096108;28;20059;-76
2022/08/25 03:23:33;;;;;;;15.20;7.38;;;;;;;19.49;100.00;100131.59;5096688;28;20047;-77
2022/08/25 03:28:42;;;;;;;17.23;9.18;;;;;;;19.54;99.45;100125.72;5054234;28;20480;-77
2022/08/25 03:31:10;;;;;;;23.33;8.52;;;;;;;19.61;99.58;100123.31;5054104;28;20110;-77
2022/08/25 03:33:39;;;;;;;17.70;7.75;;;;;;;19.68;99.60;100119.84;5053452;28;20056;-76
2022/08/25 03:36:07;;;;;;;16.38;7.97;;;;;;;19.63;99.77;100119.41;5053600;28;20053;-76
2022/08/25 03:38:37;;;;;;;15.07;7.88;;;;;;;19.67;99.39;100112.63;5053650;28;20053;-76
2022/08/25 03:41:13;;;;;;;14.60;7.90;;;;;;;19.71;99.32;100126.94;5053774;28;20067;-77
2022/08/25 03:43:41;;;;;;;17.02;8.15;;;;;;;19.67;99.30;100123.59;5054306;28;20053;-77
2022/08/25 03:46:08;;;;;;;14.45;7.75;;;;;;;19.52;99.99;100122.25;5053992;28;20558;-77
2022/08/25 03:48:36;;;;;;;14.80;7.60;;;;;;;19.54;99.67;100123.81;5053617;28;20041;-77
2022/08/25 03:51:05;;;;;;;16.65;9.10;;;;;;;19.46;100.00;100120.91;5053414;28;20231;-76
2022/08/25 03:53:32;;;;;;;18.20;8.77;;;;;;;19.45;100.00;100121.91;5046665;28;20057;-77
2022/08/25 03:56:00;;;;;;;15.52;9.00;;;;;;;19.52;100.00;100122.25;5053501;28;20053;-77
2022/08/25 03:58:28;;;;;;;18.80;9.57;;;;;;;19.61;99.69;100120.56;5053472;28;20115;-77
2022/08/25 04:00:59;;;;;;;14.80;8.52;;;;;;;19.88;97.71;100119.91;5053582;28;20061;-77
2022/08/25 04:03:26;;;;;;;16.85;8.82;;;;;;;19.88;97.84;100119.91;5042716;28;20464;-77
2022/08/25 04:05:54;;;;;;;18.88;8.80;;;;;;;20.04;96.57;100118.53;5052450;28;20052;-77
2022/08/25 04:08:23;;;;;;;16.77;8.95;;;;;;;20.12;96.30;100127.78;5075497;28;20395;-77
2022/08/25 04:10:50;;;;;;;17.83;9.00;;;;;;;20.16;97.00;100127.50;5075246;28;20044;-77
2022/08/25 04:13:18;;;;;;;16.85;8.13;;;;;;;20.06;97.94;100133.84;5075363;28;20153;-77
2022/08/25 04:15:45;;;;;;;15.43;8.27;;;;;;;19.92;98.71;100123.25;5075456;28;20498;-77
2022/08/25 04:18:13;;;;;;;15.82;8.02;;;;;;;19.77;100.00;100134.59;5093624;28;20040;-77
2022/08/25 04:20:41;;;;;;;17.08;7.80;;;;;;;19.74;100.00;100129.38;5095553;28;20105;-77
2022/08/25 04:23:09;;;;;;;15.48;8.20;;;;;;;19.62;100.00;100136.00;5095284;28;20105;-77
2022/08/25 04:25:40;;;;;;;19.75;7.88;;;;;;;19.54;100.00;100132.03;5094553;28;20044;-77
2022/08/25 04:28:09;;;;;;;16.63;8.32;;;;;;;19.54;100.00;100125.72;5095983;28;20051;-76
2022/08/25 04:30:36;;;;;;;16.05;8.65;;;;;;;19.71;99.62;100128.78;5095237;28;20044;-77
2022/08/25 04:33:04;;;;;;;18.13;8.60;;;;;;;19.95;98.32;100125.72;5095053;28;20056;-77
2022/08/25 04:35:31;;;;;;;19.05;8.27;;;;;;;20.25;95.96;100118.41;5095149;28;20040;-77
2022/08/25 04:37:59;;;;;;;15.95;8.65;;;;;;;20.29;95.07;100116.28;5095049;28;20486;-77
2022/08/25 04:40:26;;;;;;;20.58;8.40;;;;;;;20.38;93.85;100102.53;5094863;28;20040;-78
2022/08/25 04:42:55;;;;;;;25.58;8.02;;;;;;;20.47;92.82;100124.66;5095208;28;20529;-76
2022/08/25 04:45:23;;;;;;;16.75;9.18;;;;;;;20.46;93.79;100118.28;5094989;28;20094;-77
2022/08/25 04:47:50;;;;;;;17.75;8.38;;;;;;;20.53;93.56;100113.09;5091349;28;20074;-76
2022/08/25 04:50:18;;;;;;;17.10;8.32;;;;;;;20.54;95.01;100120.31;5091242;28;20040;-76
2022/08/25 04:52:45;;;;;;;19.40;9.57;;;;;;;20.56;95.16;100121.88;5083925;28;20421;-77
2022/08/25 04:55:13;;;;;;;17.27;8.68;;;;;;;20.61;95.21;100115.13;5091642;28;20173;-77
2022/08/25 04:57:40;;;;;;;17.17;8.23;;;;;;;20.74;93.63;100109.31;5090969;28;20051;-76
2022/08/25 05:00:11;;;;;;;19.70;8.13;;;;;;;20.87;92.32;100109.06;5091471;28;20387;-77
2022/08/25 05:02:38;;;;;;;16.77;8.52;;;;;;;20.91;91.70;100107.75;5092161;28;20044;-76
2022/08/25 05:05:07;;;;;;;17.63;8.27;;;;;;;20.98;91.08;100108.88;5090715;28;20097;-78
2022/08/25 05:07:34;;;;;;;16.80;8.02;;;;;;;21.08;90.26;100111.59;5091042;28;20044;-76
2022/08/25 05:10:01;;;;;;;17.85;8.68;;;;;;;21.08;89.92;100109.75;5090836;28;20052;-76
2022/08/25 05:12:30;;;;;;;13.98;8.05;;;;;;;21.17;90.06;100109.84;5094588;28;20054;-75
2022/08/25 05:15:48;;;;;;;15.43;8.15;;;;;;;21.19;89.63;100105.06;5094130;28;20074;-76
2022/08/25 05:17:47;;;;;;;18.95;7.78;;;;;;;21.33;89.14;100104.59;5095392;28;20043;-80
2022/08/25 05:20:14;;;;;;;18.52;8.18;;;;;;;21.37;88.87;100108.75;5094236;28;20044;-75
2022/08/25 05:22:44;;;;;;;15.85;7.90;;;;;;;21.45;88.38;100101.69;5094367;28;20052;-78
2022/08/25 05:25:13;;;;;;;16.13;8.38;;;;;;;21.44;88.76;100108.19;5095694;28;20040;-76
2022/08/25 05:27:40;;;;;;;17.00;8.23;;;;;;;21.34;89.14;100110.97;5094216;28;20055;-79
2022/08/25 05:30:10;;;;;;;14.82;8.18;;;;;;;21.54;88.49;100112.59;5094157;28;20094;-74
2022/08/25 05:32:38;;;;;;;17.70;8.13;;;;;;;21.65;88.00;100107.97;5093968;28;20048;-78
2022/08/25 05:35:08;;;;;;;17.63;8.27;;;;;;;21.82;87.12;100104.41;5093846;28;20407;-77
2022/08/25 05:37:36;;;;;;;16.88;8.38;;;;;;;21.84;86.62;100112.50;5093903;28;20051;-77
2022/08/25 05:40:05;;;;;;;15.77;8.00;;;;;;;21.90;86.98;100108.25;5093770;28;20456;-74
2022/08/25 05:42:33;;;;;;;18.70;7.88;;;;;;;21.85;87.39;100108.75;5093710;28;20044;-73
2022/08/25 05:45:00;;;;;;;15.63;7.40;;;;;;;21.89;86.72;100103.78;5093627;28;20051;-73
2022/08/25 05:47:28;;;;;;;15.70;7.32;;;;;;;21.94;86.34;100109.69;5089598;28;20048;-78
2022/08/25 05:49:56;;;;;;;17.40;7.60;;;;;;;22.08;84.58;100111.03;5090276;28;20058;-75
2022/08/25 05:52:27;;;;;;;18.30;7.95;;;;;;;22.13;84.56;100115.06;5089579;28;20047;-77
2022/08/25 05:54:54;;;;;;;18.52;7.55;;;;;;;22.33;83.37;100119.56;5090665;28;20449;-77
2022/08/25 05:57:22;;;;;;;15.02;7.57;;;;;;;22.39;82.85;100116.19;5090198;28;20051;-77
2022/08/25 05:59:49;;;;;;;17.02;7.82;;;;;;;22.25;83.71;100117.59;5089919;28;20048;-74
2022/08/25 06:05:02;;;;;;;17.67;7.43;;;;;;;22.29;83.80;100119.88;5091751;28;20051;-79
2022/08/25 06:07:31;;;;;;;18.25;7.88;;;;;;;22.29;83.35;100117.13;5089897;28;20052;-73
2022/08/25 06:09:59;;;;;;;15.82;7.20;;;;;;;22.44;82.73;100111.06;5089908;28;20036;-74
2022/08/25 06:12:26;;;;;;;15.25;7.45;;;;;;;22.50;82.37;100117.88;5089895;28;20044;-74
2022/08/25 06:14:54;;;;;;;14.98;7.22;;;;;;;22.63;81.64;100114.69;5089201;28;20051;-73
2022/08/25 06:17:22;;;;;;;17.05;7.35;;;;;;;22.53;81.03;100123.91;5089907;28;20119;-74
2022/08/25 06:19:49;;;;;;;16.90;7.47;;;;;;;22.62;81.25;100113.84;5089809;28;20048;-73
2022/08/25 06:22:17;;;;;;;17.55;7.65;;;;;;;22.72;81.12;100116.53;5089669;28;20556;-74
2022/08/25 06:24:45;;;;;;;17.08;6.43;;;;;;;22.81;81.11;100114.66;5089946;28;20067;-75
2022/08/25 06:27:13;;;;;;;14.25;7.07;;;;;;;22.81;80.89;100118.31;5089290;28;20044;-75
2022/08/25 06:29:41;;;;;;;14.35;6.90;;;;;;;22.89;80.97;100116.63;5089387;28;20043;-75
2022/08/25 06:32:08;;;;;;;17.13;6.72;;;;;;;22.98;80.22;100115.66;5089858;28;20040;-73
2022/08/25 06:34:35;;;;;;;16.67;7.20;;;;;;;22.97;79.85;100112.06;5089559;28;20060;-75
2022/08/25 06:37:03;;;;;;;16.17;6.72;;;;;;;23.08;79.02;100119.22;5089593;28;20063;-74
2022/08/25 06:39:31;;;;;;;14.63;6.55;;;;;;;23.15;79.00;100120.28;5089407;28;20071;-73
2022/08/25 06:42:00;;;;;;;18.90;6.75;;;;;;;23.23;79.00;100122.19;5089544;28;20526;-74
2022/08/25 06:44:28;;;;;;;14.63;6.07;;;;;;;23.22;78.49;100123.22;5089069;28;20040;-73
2022/08/25 06:46:56;;;;;;;13.13;6.45;;;;;;;23.27;78.19;100131.94;5089890;28;20060;-73
2022/08/25 06:49:26;;;;;;;15.38;6.05;;;;;;;23.34;78.38;100123.00;5093615;28;20048;-73
2022/08/25 06:51:54;;;;;;;17.33;6.03;;;;;;;23.48;78.03;100133.41;5088239;28;20487;-73
2022/08/25 06:54:21;;;;;;;14.57;5.88;;;;;;;23.51;77.19;100126.72;5093306;28;20047;-74
2022/08/25 06:56:49;;;;;;;14.60;6.75;;;;;;;23.50;77.04;100130.50;5093740;28;20044;-75
2022/08/25 06:59:19;;;;;;;14.10;6.63;;;;;;;23.61;76.54;100121.94;5093019;28;20139;-75
2022/08/25 07:01:46;;;;;;;11.88;5.53;;;;;;;23.69;75.08;100130.25;5093255;28;20505;-74
2022/08/25 07:04:14;;;;;;;12.07;5.30;;;;;;;23.75;74.65;100130.63;5093177;28;20055;-75
2022/08/25 07:06:42;;;;;;;15.18;5.45;;;;;;;23.75;75.09;100136.13;5093405;28;20048;-75
2022/08/25 07:09:10;;;;;;;18.83;5.75;;;;;;;23.80;75.20;100131.84;5093361;28;20048;-75
2022/08/25 07:11:38;;;;;;;12.60;5.30;;;;;;;23.86;75.94;100142.22;5093225;28;20124;-75
2022/08/25 07:14:07;;;;;;;12.00;5.43;;;;;;;23.97;74.74;100137.41;5093145;28;20044;-75
2022/08/25 07:16:36;;;;;;;18.52;5.78;;;;;;;23.97;74.45;100138.28;5093179;28;20048;-74
2022/08/25 07:19:05;;;;;;;15.10;5.25;;;;;;;24.11;71.98;100124.91;5093149;28;20048;-75
2022/08/25 07:21:35;;;;;;;13.18;5.10;;;;;;;24.23;70.94;100131.84;5092882;28;20056;-75
2022/08/25 07:24:05;;;;;;;15.82;5.40;;;;;;;24.21;71.27;100135.81;5094899;28;20044;-73
2022/08/25 07:26:34;;;;;;;17.27;5.88;;;;;;;24.24;71.73;100133.56;5094629;28;20052;-74
2022/08/25 07:29:04;;;;;;;14.02;5.28;;;;;;;24.31;72.42;100128.25;5094968;28;20036;-75
2022/08/25 07:31:31;;;;;;;12.82;4.90;;;;;;;24.36;71.82;100122.22;5094962;28;20043;-75
2022/08/25 07:36:45;;;;;;;14.15;5.35;;;;;;;24.53;72.04;100131.38;5095963;28;20490;-74
2022/08/25 07:39:13;;;;;;;19.15;5.10;;;;;;;24.66;70.53;100123.44;5094922;28;20048;-75
2022/08/25 07:41:41;;;;;;;13.25;5.20;;;;;;;24.70;70.28;100121.22;5094529;28;20060;-73
2022/08/25 07:44:10;;;;;;;13.13;4.88;;;;;;;24.75;70.07;100129.88;5094904;28;20044;-74
2022/08/25 07:46:38;;;;;;;11.60;4.95;;;;;;;24.82;70.21;100125.38;5094856;28;20036;-75
2022/08/25 07:49:07;;;;;;;15.70;5.10;;;;;;;24.90;71.07;100138.34;5092198;28;20040;-74
2022/08/25 07:51:35;;;;;;;12.35;4.65;;;;;;;25.04;71.27;100134.00;5093106;28;20562;-75
2022/08/25 07:54:02;;;;;;;11.02;4.75;;;;;;;25.06;70.63;100128.31;5094449;28;20051;-74
2022/08/25 07:56:30;;;;;;;13.18;4.60;;;;;;;25.08;71.11;100132.59;5094283;28;20514;-73
2022/08/25 07:58:57;;;;;;;13.27;4.60;;;;;;;25.23;70.53;100134.66;5094179;28;20064;-74
2022/08/25 08:01:25;;;;;;;15.52;5.00;;;;;;;25.26;70.15;100137.94;5091750;28;20036;-73
2022/08/25 08:03:53;;;;;;;11.65;4.63;;;;;;;25.36;68.19;100143.28;5097809;28;20126;-75
2022/08/25 08:06:24;;;;;;;17.13;4.47;;;;;;;25.41;67.64;100146.38;5094841;28;20101;-72
2022/08/25 08:08:53;;;;;;;10.73;4.78;;;;;;;25.48;66.67;100143.81;5094745;28;20482;-75
2022/08/25 08:11:24;;;;;;;11.98;4.97;;;;;;;25.53;67.08;100146.06;5093985;28;20040;-75
2022/08/25 08:13:53;;;;;;;13.85;5.30;;;;;;;25.64;67.37;100144.78;5095919;28;20055;-74
2022/08/25 08:16:21;;;;;;;12.90;5.30;;;;;;;25.66;67.48;100143.56;5094691;28;20044;-74
2022/08/25 08:18:49;;;;;;;15.30;4.30;;;;;;;25.71;67.28;100146.66;5094563;28;20044;-75
2022/08/25 08:21:23;;;;;;;12.05;3.97;;;;;;;25.77;65.99;100142.34;5094807;28;20040;-72
2022/08/25 08:23:53;;;;;;;12.43;4.60;;;;;;;25.87;64.94;100150.41;5097904;28;20040;-72
2022/08/25 08:26:22;;;;;;;15.27;4.05;;;;;;;26.00;60.91;100150.69;5091786;28;20055;-74
2022/08/25 08:28:50;;;;;;;11.43;4.28;;;;;;;25.99;61.59;100146.22;5094713;28;20040;-74
2022/08/25 08:31:18;;;;;;;12.18;4.28;;;;;;;26.13;60.67;100149.25;5095038;28;20052;-74
2022/08/25 08:33:46;;;;;;;11.80;4.10;;;;;;;26.14;61.45;100142.66;5092867;28;20691;-73
2022/08/25 08:36:14;;;;;;;15.35;3.90;;;;;;;26.20;59.68;100141.13;5091261;28;20123;-74
2022/08/25 08:38:43;;;;;;;11.02;3.65;;;;;;;26.32;56.93;100139.66;5090726;28;20044;-74
2022/08/25 08:44:20;;;;;;;15.77;4.20;;;;;;;26.41;55.94;100143.25;5091367;28;20128;-73
2022/08/25 08:46:55;;;;;;;17.27;3.70;;;;;;;26.43;55.40;100143.91;5092097;28;20539;-74
2022/08/25 08:49:27;;;;;;;14.13;3.55;;;;;;;26.45;55.01;100145.44;5091222;28;20048;-74
2022/08/25 08:51:59;;;;;;;13.27;3.95;;;;;;;26.50;55.20;100144.03;5086191;28;20036;-74
2022/08/25 08:54:33;;;;;;;11.32;3.78;;;;;;;26.54;56.19;100142.66;5070883;28;20129;-74
2022/08/25 08:57:05;;;;;;;10.27;3.70;;;;;;;26.60;57.41;100139.13;5071189;28;20510;-75
2022/08/25 08:59:41;;;;;;;11.15;3.53;;;;;;;26.67;58.75;100133.69;5071222;28;20056;-73
2022/08/25 09:02:15;;;;;;;11.77;3.40;;;;;;;26.74;57.79;100135.53;5071217;28;20052;-74
2022/08/25 09:04:45;;;;;;;15.27;3.47;;;;;;;26.83;53.77;100132.69;5071699;28;20496;-74
2022/08/25 09:07:20;;;;;;;11.43;3.38;;;;;;;26.90;52.59;100134.59;5074690;28;20114;-73
2022/08/25 09:09:49;;;;;;;8.40;2.92;;;;;;;26.96;52.41;100127.44;5073219;28;20044;-73
2022/08/25 09:12:24;;;;;;;13.95;3.15;;;;;;;27.02;50.72;100128.59;5074175;28;20048;-74
2022/08/25 09:15:01;;;;;;;10.77;3.13;;;;;;;27.05;48.99;100128.22;5074781;28;20044;-74
2022/08/25 09:17:40;;;;;;;12.05;2.90;;;;;;;27.02;49.36;100128.59;5074700;28;20072;-74
2022/08/25 09:20:37;;;;;;;12.48;3.20;;;;;;;27.03;50.32;100128.41;5074867;28;20052;-74
2022/08/25 09:23:15;;;;;;;13.23;3.10;;;;;;;27.07;49.75;100128.88;5073706;28;20052;-73
2022/08/25 09:25:51;;;;;;;9.32;2.90;;;;;;;27.14;48.26;100129.88;5074148;28;20413;-74
2022/08/25 09:28:21;;;;;;;9.05;3.25;;;;;;;27.12;47.58;100123.63;5073718;28;20048;-74
2022/08/25 09:30:54;;;;;;;9.40;3.10;;;;;;;27.23;45.66;100135.31;5073764;28;20048;-74
2022/08/25 09:33:23;;;;;;;11.60;3.20;;;;;;;27.24;47.04;100128.72;5074981;28;20047;-74
2022/08/25 09:35:52;;;;;;;13.68;3.25;;;;;;;27.22;47.44;100128.91;5073833;28;20047;-75
2022/08/25 09:38:20;;;;;;;13.13;3.20;;;;;;;27.23;48.36;100125.09;5073391;28;20049;-73
2022/08/25 09:40:51;;;;;;;10.82;2.90;;;;;;;27.45;46.32;100125.22;5073685;28;20044;-75
2022/08/25 09:43:21;;;;;;;11.05;3.00;;;;;;;27.39;46.05;100126.81;5074685;28;20044;-73
2022/08/25 09:45:51;;;;;;;11.68;3.10;;;;;;;27.47;47.23;100117.56;5075260;28;20403;-74
2022/08/25 09:48:27;;;;;;;13.27;3.30;;;;;;;27.56;46.34;100121.16;5073480;28;20136;-73
2022/08/25 09:50:59;;;;;;;13.20;3.10;;;;;;;27.65;45.15;100121.88;5074225;28;20102;-73
2022/08/25 09:53:27;;;;;;;7.28;2.58;;;;;;;27.63;45.67;100116.53;5085635;28;20047;-74
2022/08/25 09:55:59;;;;;;;10.30;3.50;;;;;;;27.68;45.67;100122.38;5093769;28;20043;-80
2022/08/25 09:58:27;;;;;;;10.40;2.97;;;;;;;27.73;45.83;100125.44;5095081;28;20084;-75
2022/08/25 10:01:13;;;;;;;13.02;2.83;;;;;;;27.82;45.92;100119.75;5093821;28;20402;-75
2022/08/25 10:03:55;;;;;;;7.00;2.85;;;;;;;27.93;45.29;100116.50;5093627;28;20044;-75
2022/08/25 10:06:24;;;;;;;11.25;2.85;;;;;;;28.02;43.64;100126.44;5093680;28;20051;-74
2022/08/25 10:08:56;;;;;;;16.08;3.35;;;;;;;28.19;42.68;100115.13;5093746;28;20152;-75
2022/08/25 10:11:36;;;;;;;7.82;2.53;;;;;;;28.07;42.75;100109.19;5094732;28;20055;-75
2022/08/25 10:14:08;;;;;;;10.38;2.53;;;;;;;28.18;41.48;100118.97;5094319;28;20048;-75
2022/08/25 10:16:35;;;;;;;10.95;2.55;;;;;;;28.18;42.22;100107.84;5094548;28;20051;-74
2022/08/25 10:19:07;;;;;;;11.43;2.50;;;;;;;28.22;41.92;100114.75;5093443;28;20048;-74
2022/08/25 10:21:36;;;;;;;11.93;2.70;;;;;;;28.25;42.82;100111.56;5092805;28;20043;-75
2022/08/25 10:24:04;;;;;;;8.38;2.65;;;;;;;28.26;43.83;100110.50;5093140;28;20127;-75
2022/08/25 10:26:44;;;;;;;8.25;2.50;;;;;;;28.33;43.98;100099.47;5093425;28;20071;-74
2022/08/25 10:29:26;;;;;;;8.57;2.75;;;;;;;28.40;40.34;100110.69;5094877;28;20379;-75
2022/08/25 10:31:57;;;;;;;9.85;2.70;;;;;;;28.45;40.28;100105.38;5094798;28;20464;-75
2022/08/25 10:34:40;;;;;;;9.68;2.67;;;;;;;28.48;41.32;100097.50;5095078;28;20411;-75
2022/08/25 10:37:14;;;;;;;16.08;3.00;;;;;;;28.46;42.12;100109.88;5093348;28;20095;-74
2022/08/25 10:39:44;;;;;;;10.47;3.77;;;;;;;28.50;41.03;100100.09;5093507;28;20051;-74
2022/08/25 10:42:29;;;;;;;10.60;2.60;;;;;;;28.51;40.86;100089.81;5093252;28;20460;-74
2022/08/25 10:48:19;;;;;;;12.60;2.90;;;;;;;28.52;40.87;100091.53;5094446;28;20063;-75
2022/08/25 10:50:50;;;;;;;8.40;2.60;;;;;;;28.57;40.33;100089.91;5090143;28;20062;-75
2022/08/25 10:53:26;;;;;;;7.93;2.53;;;;;;;28.71;39.06;100079.78;5085836;28;20059;-73
2022/08/25 10:56:03;;;;;;;9.88;2.95;;;;;;;28.75;38.62;100075.53;5095738;28;20044;-74
2022/08/25 10:58:46;;;;;;;13.00;2.97;;;;;;;28.77;38.76;100086.47;5094340;28;20506;-74
2022/08/25 11:01:20;;;;;;;10.60;2.53;;;;;;;28.83;37.64;100077.34;5094537;28;20048;-75
2022/08/25 11:03:51;;;;;;;8.88;2.70;;;;;;;28.82;38.42;100086.75;5092751;28;20044;-74
2022/08/25 11:06:22;;;;;;;11.40;2.70;;;;;;;28.84;38.06;100073.50;5093378;28;20051;-74
2022/08/25 11:08:52;;;;;;;9.13;2.88;;;;;;;28.94;37.00;100073.13;5092561;28;20048;-78
2022/08/25 11:11:26;;;;;;;9.48;2.72;;;;;;;28.96;37.59;100061.84;5093447;28;20055;-75
2022/08/25 11:13:58;;;;;;;13.15;2.70;;;;;;;28.97;38.58;100060.75;5094349;28;20093;-74
2022/08/25 11:16:35;;;;;;;9.93;2.60;;;;;;;28.92;38.90;100061.38;5094682;28;20040;-74
2022/08/25 11:19:08;;;;;;;9.00;2.50;;;;;;;28.98;38.21;100062.47;5092472;28;20052;-74
2022/08/25 11:21:42;;;;;;;9.77;3.10;;;;;;;28.98;38.23;100057.81;5092680;28;20105;-73
2022/08/25 11:24:22;;;;;;;11.57;2.63;;;;;;;29.08;38.43;100062.13;5093512;28;20064;-74
2022/08/25 11:26:54;;;;;;;9.00;2.70;;;;;;;29.06;38.07;100051.19;5093419;28;20044;-73
2022/08/25 11:29:29;;;;;;;12.18;2.78;;;;;;;29.07;38.53;100052.91;5093943;28;20044;-73
2022/08/25 11:31:59;;;;;;;10.45;3.03;;;;;;;29.10;38.80;100049.72;5094097;28;20047;-73
2022/08/25 11:34:28;;;;;;;10.80;2.50;;;;;;;29.18;37.94;100052.38;5094987;28;20040;-73
2022/08/25 11:36:59;;;;;;;8.27;2.80;;;;;;;29.21;38.28;100039.97;5096254;28;20048;-73
2022/08/25 11:39:37;;;;;;;12.25;2.63;;;;;;;29.18;39.29;100049.59;5096772;28;20437;-72
2022/08/25 11:42:15;;;;;;;11.00;2.70;;;;;;;29.30;39.41;100035.09;5097303;28;20044;-73
2022/08/25 11:44:52;;;;;;;13.40;2.90;;;;;;;29.32;38.13;100035.75;5097360;28;20057;-73